Venlo Airfield

NL-0037 · Limburg, Nederland

METAR historie NL-0037 · Venlo Airfield

Hieronder zie je METAR's van de afgelopen dagen. Kies een jaar om door oudere METAR's te bladeren, vanaf het jaar 2007.

14 april 2024

Tijd Code Weer Temp. Zicht Plafond Wind METAR/SPECI
08:50
V
13 °C 10 km+ - 270° 270° 5 kt METAR EDLN 140650Z 27005KT 220V340 9999 FEW039 13/08 Q1022
08:20
V
12 °C 10 km+ - 270° 270° 5 kt METAR EDLN 140620Z 27005KT 230V300 9999 FEW035 12/08 Q1022
07:50
V
12 °C 10 km+ - 270° 270° 4 kt METAR EDLN 140550Z 27004KT 230V310 9999 FEW034 SCT040 12/08 Q1022
07:20
V
12 °C 10 km+ 10.000 ft 260° 260° 4 kt METAR EDLN 140520Z AUTO 26004KT 210V310 9999 // SCT040/// SCT083/// BKN100/// 12/08 Q1022
06:50
V
12 °C 10 km+ 3.700 ft 260° 260° 5 kt METAR EDLN 140450Z AUTO 26005KT 220V310 9999 // FEW024/// BKN037/// 12/07 Q1022
06:20
V
13 °C 10 km+ 3.500 ft 250° 250° 3 kt METAR EDLN 140420Z AUTO 25003KT 200V300 9999 // BKN035/// 13/07 Q1021
05:50
V
13 °C 10 km+ 3.200 ft 250° 250° 4 kt METAR EDLN 140350Z AUTO 25004KT 180V310 9999 // BKN032/// BKN040/// 13/07 Q1021
05:20
V
13 °C 10 km+ - 250° 250° 3 kt METAR EDLN 140320Z AUTO 25003KT 210V300 9999 // FEW039/// 13/06 Q1021
04:50
V
14 °C 10 km+ - 260° 260° 4 kt METAR EDLN 140250Z AUTO 26004KT 210V310 9999 // FEW034/// 14/06 Q1021
04:20
V
14 °C 10 km+ 5.300 ft 260° 260° 3 kt METAR EDLN 140220Z AUTO 26003KT 220V300 9999 // SCT035/// BKN053/// 14/05 Q1021
03:50
V
15 °C 10 km+ - 270° 270° 4 kt METAR EDLN 140150Z AUTO 27004KT 240V300 9999 // SCT036/// 15/05 Q1021
03:20
V
15 °C 10 km+ - 260° 260° 3 kt METAR EDLN 140120Z AUTO 26003KT 220V320 9999 // NCD 15/06 Q1020
02:50
V
16 °C 10 km+ - 270° 270° 4 kt METAR EDLN 140050Z AUTO 27004KT 230V310 9999 // NCD 16/06 Q1020
02:20
V
17 °C 10 km+ - 280° 280° 5 kt METAR EDLN 140020Z AUTO 28005KT 240V320 9999 // NCD 17/05 Q1020
01:50
V
18 °C 10 km+ - 270° 270° 7 kt METAR EDLN 132350Z AUTO 27007KT 220V320 9999 // NCD 18/09 Q1020
01:20
V
18 °C 10 km+ - 260° 260° 4 kt METAR EDLN 132320Z AUTO 26004KT 200V300 9999 // NCD 18/13 Q1020
00:50
V
19 °C 10 km+ - 240° 240° 4 kt METAR EDLN 132250Z AUTO 24004KT 200V310 9999 // NCD 19/13 Q1019
00:20
V
18 °C 10 km+ - 220° 220° 5 kt METAR EDLN 132220Z AUTO 22005KT 170V250 9999 // FEW051/// 18/13 Q1019

13 april 2024

Tijd Code Weer Temp. Zicht Plafond Wind METAR/SPECI
23:50
V
19 °C 10 km+ - 220° 220° 5 kt METAR EDLN 132150Z AUTO 22005KT 180V260 9999 // FEW053/// 19/13 Q1019
23:20
V
19 °C 10 km+ - 210° 210° 4 kt METAR EDLN 132120Z AUTO 21004KT 170V260 9999 // NCD 19/13 Q1019
22:50
V
19 °C 10 km+ - 210° 210° 4 kt METAR EDLN 132050Z AUTO 21004KT 090V260 9999 // NCD 19/13 Q1019
22:20
V
18 °C 10 km+ - 200° 200° 3 kt METAR EDLN 132020Z AUTO 20003KT 170V260 9999 // NCD 18/13 Q1019
21:50
V
19 °C 10 km+ - 210° 210° 3 kt METAR EDLN 131950Z AUTO 21003KT 170V260 9999 // NCD 19/13 Q1019
21:20
V
19 °C 10 km+ - Var Var 2 kt METAR EDLN 131920Z AUTO VRB02KT 9999 // NCD 19/13 Q1019
20:50
V
21 °C 10 km+ - 230° 230° 4 kt METAR EDLN 131850Z AUTO 23004KT 200V280 9999 // NCD 21/12 Q1019
20:20
V
22 °C 10 km+ - 230° 230° 6 kt METAR EDLN 131820Z AUTO 23006KT 200V270 9999 // NCD 22/12 Q1019
19:50
V
23 °C 10 km+ - 230° 230° 7 kt METAR EDLN 131750Z 23007KT 190V280 CAVOK 23/11 Q1019
19:20
V
24 °C 10 km+ - 240° 240° 6 kt METAR EDLN 131720Z 24006KT 200V280 CAVOK 24/12 Q1020
18:50
V
24 °C 10 km+ - 240° 240° 8 kt METAR EDLN 131650Z 24008KT 200V290 CAVOK 24/11 Q1020
18:20
V
24 °C 10 km+ - 240° 240° 9 kt METAR EDLN 131620Z 24009KT 210V300 CAVOK 24/11 Q1020
17:50
V
25 °C 10 km+ - 240° 240° 8 kt METAR EDLN 131550Z 24008KT 190V290 CAVOK 25/11 Q1020
17:20
V
25 °C 10 km+ - 230° 230° 8 kt METAR EDLN 131520Z 23008KT 190V270 CAVOK 25/12 Q1020
16:50
V
25 °C 10 km+ - 230° 230° 7 kt METAR EDLN 131450Z 23007KT 180V290 CAVOK 25/12 Q1021
16:20
V
24 °C 10 km+ - 210° 210° 8 kt METAR EDLN 131420Z 21008KT 160V300 CAVOK 24/12 Q1021
15:50
V
24 °C 10 km+ - 220° 220° 9 kt METAR EDLN 131350Z 22009KT 180V270 CAVOK 24/12 Q1022
15:20
V
24 °C 10 km+ - 210° 210° 8 kt METAR EDLN 131320Z 21008KT 170V240 CAVOK 24/13 Q1022
14:50
V
23 °C 10 km+ - 210° 210° 8 kt METAR EDLN 131250Z 21008KT 170V250 CAVOK 23/14 Q1023
14:20
V
22 °C 10 km+ - 200° 200° 11 kt METAR EDLN 131220Z 20011KT 170V240 CAVOK 22/13 Q1023
13:50
V
22 °C 10 km+ - 200° 200° 11 kt METAR EDLN 131150Z 20011KT 170V240 CAVOK 22/13 Q1024
13:20
V
22 °C 10 km+ - 210° 210° 8 kt METAR EDLN 131120Z 21008KT 170V240 CAVOK 22/14 Q1024
12:50
V
21 °C 10 km+ - 220° 220° 10 kt METAR EDLN 131050Z 22010KT 160V260 CAVOK 21/13 Q1025
12:20
V
21 °C 10 km+ - 210° 210° 10 kt METAR EDLN 131020Z 21010KT 180V250 CAVOK 21/13 Q1025
11:50
V
20 °C 10 km+ - 200° 200° 9 kt METAR EDLN 130950Z 20009KT 170V240 CAVOK 20/13 Q1026
11:20
V
20 °C 10 km+ - 210° 210° 7 kt METAR EDLN 130920Z 21007KT 170V250 CAVOK 20/13 Q1026
10:50
V
19 °C 10 km+ - 210° 210° 7 kt METAR EDLN 130850Z 21007KT 170V240 CAVOK 19/13 Q1026
10:20
V
18 °C 10 km+ - 210° 210° 5 kt METAR EDLN 130820Z 21005KT 170V250 CAVOK 18/13 Q1026
09:50
V
17 °C 10 km+ - 190° 190° 4 kt METAR EDLN 130750Z 19004KT 140V230 CAVOK 17/13 Q1026
09:20
V
16 °C 10 km+ - 140° 140° 3 kt METAR EDLN 130720Z 14003KT 110V170 CAVOK 16/13 Q1027
08:50
V
15 °C 10 km+ - 140° 140° 3 kt METAR EDLN 130650Z 14003KT CAVOK 15/13 Q1027
08:20
V
13 °C 10 km+ - 130° 130° 2 kt METAR EDLN 130620Z 13002KT CAVOK 13/12 Q1027
07:50
V
11 °C 10 km+ - 150° 150° 3 kt METAR EDLN 130550Z 15003KT CAVOK 11/10 Q1027
07:20
V
10 °C 10 km+ - 120° 120° 2 kt METAR EDLN 130520Z AUTO 12002KT 9999 // FEW230/// 10/10 Q1027
06:50
V
10 °C 10 km+ - 130° 130° 3 kt METAR EDLN 130450Z AUTO 13003KT 9999 // FEW220/// 10/10 Q1027
06:20
V
10 °C 10 km+ - 140° 140° 2 kt METAR EDLN 130420Z AUTO 14002KT 9999 // NCD 10/10 Q1027
05:50
V
11 °C 10 km+ - 130° 130° 2 kt METAR EDLN 130350Z AUTO 13002KT 9999 // FEW210/// 11/10 Q1027
05:20
V
11 °C 10 km+ 21.000 ft Var Var 2 kt METAR EDLN 130320Z AUTO VRB02KT 9999 // BKN210/// 11/10 Q1027
04:50
V
13 °C 10 km+ 21.000 ft Var Var 2 kt METAR EDLN 130250Z AUTO VRB02KT 9999 // BKN210/// 13/11 Q1027
04:20
V
13 °C 10 km+ 22.000 ft Var Var 2 kt METAR EDLN 130220Z AUTO VRB02KT 9999 // BKN220/// 13/11 Q1027
03:50
V
14 °C 10 km+ 23.000 ft 190° 190° 4 kt METAR EDLN 130150Z AUTO 19004KT 9999 // OVC230/// 14/12 Q1027
03:20
V
14 °C 10 km+ 22.000 ft 200° 200° 4 kt METAR EDLN 130120Z AUTO 20004KT 170V250 9999 // BKN220/// 14/12 Q1027
02:50
V
14 °C 10 km+ 23.000 ft 200° 200° 4 kt METAR EDLN 130050Z AUTO 20004KT 170V240 9999 // BKN230/// 14/12 Q1028
02:20
V
14 °C 10 km+ 23.000 ft 190° 190° 4 kt METAR EDLN 130020Z AUTO 19004KT 150V250 9999 // BKN230/// 14/12 Q1028
01:50
V
14 °C 10 km+ 23.000 ft 200° 200° 3 kt METAR EDLN 122350Z AUTO 20003KT 170V250 9999 // BKN230/// 14/12 Q1028
01:20
V
15 °C 10 km+ 24.000 ft Var Var 2 kt METAR EDLN 122320Z AUTO VRB02KT 9999 // BKN240/// 15/12 Q1028
00:50
V
15 °C 10 km+ 24.000 ft Var Var 3 kt METAR EDLN 122250Z AUTO VRB03KT 9999 // BKN240/// 15/12 Q1028
00:20
V
16 °C 10 km+ 23.000 ft 220° 220° 3 kt METAR EDLN 122220Z AUTO 22003KT 170V250 9999 // BKN230/// 16/12 Q1028

12 april 2024

Tijd Code Weer Temp. Zicht Plafond Wind METAR/SPECI
23:50
V
17 °C 10 km+ 23.000 ft 220° 220° 4 kt METAR EDLN 122150Z AUTO 22004KT 170V250 9999 // BKN230/// 17/12 Q1028
23:20
V
17 °C 10 km+ 24.000 ft 210° 210° 4 kt METAR EDLN 122120Z AUTO 21004KT 160V280 9999 // FEW048/// BKN240/// 17/12 Q1028
22:50
V
17 °C 10 km+ 4.400 ft 200° 200° 4 kt METAR EDLN 122050Z AUTO 20004KT 170V240 9999 // BKN044/// 17/12 Q1028
22:20
V
17 °C 10 km+ - 210° 210° 3 kt METAR EDLN 122020Z AUTO 21003KT 150V260 9999 // FEW052/// 17/12 Q1028
21:50
V
18 °C 10 km+ - 210° 210° 4 kt METAR EDLN 121950Z AUTO 21004KT 170V250 9999 // SCT056/// 18/13 Q1028
21:20
V
17 °C 10 km+ 5.800 ft 200° 200° 4 kt METAR EDLN 121920Z AUTO 20004KT 9999 // FEW045/// BKN058/// 17/13 Q1028
20:50
V
18 °C 10 km+ 5.500 ft 200° 200° 4 kt METAR EDLN 121850Z AUTO 20004KT 9999 // FEW048/// OVC055/// 18/13 Q1028
20:20
V
18 °C 10 km+ - 190° 190° 4 kt METAR EDLN 121820Z 19004KT CAVOK 18/13 Q1028
19:50
V
19 °C 10 km+ - 200° 200° 4 kt METAR EDLN 121750Z 20004KT 160V250 CAVOK 19/13 Q1028
19:20
V
19 °C 10 km+ - 200° 200° 6 kt METAR EDLN 121720Z 20006KT 180V240 CAVOK 19/13 Q1028
18:50
V
20 °C 10 km+ - 210° 210° 6 kt METAR EDLN 121650Z 21006KT 170V260 9999 FEW043 SCT049 20/13 Q1029
18:20
V
20 °C 10 km+ - 220° 220° 7 kt METAR EDLN 121620Z 22007KT 170V260 9999 SCT040 20/12 Q1029
17:50
V
20 °C 10 km+ - 210° 210° 5 kt METAR EDLN 121550Z 21005KT 170V280 CAVOK 20/13 Q1029
17:20
V
21 °C 10 km+ - 220° 220° 6 kt METAR EDLN 121520Z 22006KT 180V340 CAVOK 21/12 Q1029
16:50
V
20 °C 10 km+ 4.100 ft 220° 220° 6 kt METAR EDLN 121450Z 22006KT 190V260 9999 BKN041 20/12 Q1029
16:20
V
20 °C 10 km+ - 210° 210° 6 kt METAR EDLN 121420Z 21006KT 180V250 9999 FEW039 20/13 Q1030
15:50
V
20 °C 10 km+ - 230° 230° 6 kt METAR EDLN 121350Z 23006KT 190V270 9999 SCT038 20/12 Q1030
15:20
V
20 °C 10 km+ 4.500 ft 230° 230° 5 kt METAR EDLN 121320Z 23005KT 180V290 9999 FEW036 BKN045 20/12 Q1030
14:50
V
20 °C 10 km+ 4.600 ft 220° 220° 8 kt METAR EDLN 121250Z 22008KT 180V250 9999 SCT035 BKN046 20/12 Q1030
14:20
V
19 °C 10 km+ 3.300 ft 220° 220° 9 kt METAR EDLN 121220Z 22009KT 180V270 9999 BKN033 19/13 Q1031
13:50
V
19 °C 10 km+ - 210° 210° 9 kt METAR EDLN 121150Z 21009KT 160V250 9999 FEW030 SCT047 19/13 Q1031
13:20
V
18 °C 10 km+ - 210° 210° 9 kt METAR EDLN 121120Z 21009KT 170V250 9999 SCT040 18/13 Q1031
12:50
V
18 °C 10 km+ 4.000 ft 210° 210° 7 kt METAR EDLN 121050Z 21007KT 180V240 9999 OVC040 18/13 Q1031
12:20
V
18 °C 10 km+ 3.800 ft 210° 210° 6 kt METAR EDLN 121020Z 21006KT 170V280 9999 OVC038 18/13 Q1032
11:50
V
17 °C 10 km+ 3.700 ft Var Var 6 kt METAR EDLN 120950Z VRB06KT 9999 OVC037 17/12 Q1032
11:20
V
17 °C 10 km+ 3.700 ft 220° 220° 6 kt METAR EDLN 120920Z 22006KT 170V250 9999 FEW016 OVC037 17/12 Q1032
10:50
V
16 °C 10 km+ 3.500 ft 210° 210° 6 kt METAR EDLN 120850Z 21006KT 170V260 9999 FEW017 OVC035 16/12 Q1032
10:20
V
16 °C 10 km+ 3.500 ft 200° 200° 6 kt METAR EDLN 120820Z 20006KT 160V230 9999 FEW017 OVC035 16/13 Q1032
09:50
V
15 °C 10 km+ 3.300 ft 200° 200° 5 kt METAR EDLN 120750Z 20005KT 140V250 9999 OVC033 15/13 Q1031
09:20
M
14 °C 10 km+ 2.000 ft 190° 190° 4 kt METAR EDLN 120720Z 19004KT 140V230 9999 BKN020 OVC029 14/12 Q1032
08:50
M
14 °C 10 km+ 2.100 ft 190° 190° 4 kt METAR EDLN 120650Z 19004KT 9999 FEW016 OVC021 14/12 Q1032
08:20
M
14 °C 10 km+ 2.000 ft 180° 180° 5 kt METAR EDLN 120620Z 18005KT 9999 OVC020 14/12 Q1032
07:50
M
13 °C 10 km+ 1.800 ft 170° 170° 4 kt METAR EDLN 120550Z 17004KT 9999 OVC018 13/12 Q1031
Wijziging doorgeven